Time;durP1;ratioP1;P1;durP2;ratioP2;P2;SDS_P1;SDS_P2;PMS_P1;PMS_P2;Temp;Humidity;BMP_temperature;BMP_pressure;BME280_temperature;BME280_humidity;BME280_pressure;Samples;Min_cycle;Max_cycle;Signal;HPM_P1;HPM_P2
2023/08/31 00:03:47;;;;;;;6.57;3.90;;;;;14.10;95737.00;;;;8317203;28;20235;-68
2023/08/31 00:07:52;;;;;;;4.68;3.80;;;;;14.10;95741.00;;;;8316637;28;20194;-66
2023/08/31 00:11:58;;;;;;;4.35;3.95;;;;;14.00;95723.00;;;;8319725;28;20284;-68
2023/08/31 00:16:02;;;;;;;5.78;4.00;;;;;14.10;95702.00;;;;8317738;28;20671;-68
2023/08/31 00:20:08;;;;;;;5.32;4.40;;;;;14.10;95686.00;;;;8316254;28;20226;-67
2023/08/31 00:24:12;;;;;;;5.97;4.47;;;;;14.10;95687.00;;;;8318875;28;20208;-67
2023/08/31 00:28:21;;;;;;;7.78;5.18;;;;;14.10;95694.00;;;;8313900;28;20654;-68
2023/08/31 00:32:33;;;;;;;4.13;3.70;;;;;14.10;95704.00;;;;8317664;28;20851;-68
2023/08/31 00:36:38;;;;;;;5.05;4.18;;;;;14.00;95683.00;;;;8318164;28;20196;-68
2023/08/31 00:40:45;;;;;;;5.10;4.35;;;;;14.00;95672.00;;;;8312606;28;20229;-67
2023/08/31 00:44:51;;;;;;;7.15;4.60;;;;;14.00;95675.00;;;;8309806;28;20208;-67
2023/08/31 00:48:57;;;;;;;7.10;5.20;;;;;13.90;95681.00;;;;8316426;28;20208;-68
2023/08/31 00:53:05;;;;;;;7.93;5.25;;;;;13.90;95679.00;;;;8303275;28;20248;-68
2023/08/31 00:57:11;;;;;;;8.32;4.75;;;;;13.90;95684.00;;;;8316250;28;20535;-68
2023/08/31 01:01:22;;;;;;;7.10;5.25;;;;;13.90;95697.00;;;;8329494;28;20932;-68
2023/08/31 01:05:38;;;;;;;8.60;4.90;;;;;13.80;95702.00;;;;8309937;28;20312;-68
2023/08/31 01:09:49;;;;;;;10.15;5.15;;;;;13.80;95701.00;;;;8316047;28;20206;-68
2023/08/31 01:14:03;;;;;;;7.10;5.03;;;;;13.80;95711.00;;;;8310154;28;20228;-68
2023/08/31 01:18:08;;;;;;;6.60;5.32;;;;;13.80;95715.00;;;;8303891;28;20548;-68
2023/08/31 01:22:24;;;;;;;6.43;5.65;;;;;13.90;95719.00;;;;8311229;28;20232;-68
2023/08/31 01:26:31;;;;;;;6.68;5.35;;;;;14.00;95723.00;;;;8313887;28;20210;-68
2023/08/31 01:30:35;;;;;;;6.72;5.18;;;;;14.00;95727.00;;;;8308129;28;20199;-68
2023/08/31 01:34:39;;;;;;;7.13;4.95;;;;;14.00;95722.00;;;;8312151;28;20206;-68
2023/08/31 01:38:46;;;;;;;6.85;4.82;;;;;14.00;95708.00;;;;8306793;28;20204;-68
2023/08/31 01:42:51;;;;;;;8.15;4.75;;;;;14.00;95727.00;;;;8311433;28;20729;-68
2023/08/31 01:47:06;;;;;;;9.05;4.93;;;;;13.90;95730.00;;;;8309961;28;20200;-68
2023/08/31 01:51:12;;;;;;;6.53;4.85;;;;;14.00;95727.00;;;;8308155;28;20561;-68
2023/08/31 01:55:18;;;;;;;7.70;4.70;;;;;14.00;95729.00;;;;8309724;28;20209;-68
2023/08/31 01:59:26;;;;;;;7.15;4.78;;;;;14.00;95735.00;;;;8312006;28;20212;-68
2023/08/31 02:03:29;;;;;;;6.40;4.93;;;;;14.00;95727.00;;;;8303127;28;21278;-68
2023/08/31 02:07:33;;;;;;;4.85;4.30;;;;;14.00;95731.00;;;;8304554;28;20206;-66
2023/08/31 02:11:37;;;;;;;5.63;4.28;;;;;14.00;95737.00;;;;8311010;28;20197;-66
2023/08/31 02:15:44;;;;;;;5.15;4.28;;;;;14.00;95733.00;;;;8309836;28;20208;-67
2023/08/31 02:19:48;;;;;;;5.95;4.68;;;;;14.00;95728.00;;;;8302591;28;20255;-66
2023/08/31 02:23:53;;;;;;;7.72;4.55;;;;;14.00;95738.00;;;;8314480;28;20821;-66
2023/08/31 02:27:58;;;;;;;7.15;4.45;;;;;14.00;95734.00;;;;8310747;28;20204;-66
2023/08/31 02:32:06;;;;;;;5.00;4.50;;;;;14.10;95729.00;;;;8314387;28;20232;-66
2023/08/31 02:36:09;;;;;;;5.53;4.57;;;;;14.10;95723.00;;;;8313594;28;20210;-66
2023/08/31 02:40:17;;;;;;;5.00;4.38;;;;;14.10;95732.00;;;;8314429;28;20212;-67
2023/08/31 02:44:22;;;;;;;6.55;4.85;;;;;14.10;95739.00;;;;8313762;28;20253;-67
2023/08/31 02:48:29;;;;;;;6.43;4.57;;;;;14.10;95733.00;;;;8312883;28;20206;-66
2023/08/31 02:52:34;;;;;;;7.38;4.78;;;;;14.10;95735.00;;;;8313290;28;20197;-67
2023/08/31 02:56:37;;;;;;;8.07;5.63;;;;;14.00;95735.00;;;;8312846;28;20315;-67
2023/08/31 03:05:03;;;;;;;9.15;5.85;;;;;13.90;95750.00;;;;8265587;28;20748;-67
2023/08/31 03:09:08;;;;;;;9.38;5.80;;;;;13.90;95750.00;;;;8278610;28;20206;-67
2023/08/31 03:13:12;;;;;;;9.95;5.78;;;;;13.90;95757.00;;;;8282193;28;21064;-67
2023/08/31 03:17:18;;;;;;;9.15;6.30;;;;;14.00;95755.00;;;;8272190;28;20237;-67
2023/08/31 03:21:23;;;;;;;8.52;6.35;;;;;14.00;95758.00;;;;8283913;28;20308;-67
2023/08/31 03:25:28;;;;;;;11.00;5.90;;;;;14.10;95757.00;;;;8282629;28;20206;-67
2023/08/31 03:29:36;;;;;;;8.35;5.68;;;;;14.00;95763.00;;;;8281937;28;20204;-67
2023/08/31 03:33:41;;;;;;;7.30;5.22;;;;;14.00;95769.00;;;;8284141;28;20198;-67
2023/08/31 03:37:49;;;;;;;11.52;5.82;;;;;13.90;95762.00;;;;8284133;28;20206;-67
2023/08/31 03:41:52;;;;;;;11.60;5.60;;;;;13.90;95768.00;;;;8285802;28;20623;-67
2023/08/31 03:45:58;;;;;;;9.95;6.45;;;;;13.90;95768.00;;;;8286670;28;20193;-67
2023/08/31 03:50:01;;;;;;;8.18;5.80;;;;;13.90;95783.00;;;;8287546;28;20206;-67
2023/08/31 03:54:06;;;;;;;10.27;5.43;;;;;13.90;95775.00;;;;8286097;28;20232;-67
2023/08/31 03:58:12;;;;;;;9.15;5.22;;;;;13.90;95777.00;;;;8273487;28;20304;-67
2023/08/31 04:02:21;;;;;;;9.85;5.53;;;;;13.80;95789.00;;;;8285985;28;20253;-67
2023/08/31 04:06:24;;;;;;;7.60;5.22;;;;;13.80;95794.00;;;;8276432;28;20201;-67
2023/08/31 04:10:31;;;;;;;7.82;5.47;;;;;13.80;95793.00;;;;8280242;28;20213;-67
2023/08/31 04:14:35;;;;;;;13.10;5.60;;;;;13.80;95807.00;;;;8266569;28;20695;-67
2023/08/31 04:18:41;;;;;;;11.07;5.70;;;;;13.80;95813.00;;;;8271019;28;20213;-67
2023/08/31 04:22:49;;;;;;;8.57;5.95;;;;;13.80;95820.00;;;;8274925;28;20249;-67
2023/08/31 04:26:57;;;;;;;8.10;5.40;;;;;13.70;95826.00;;;;8274081;28;20203;-67
2023/08/31 04:31:06;;;;;;;8.20;5.43;;;;;13.70;95838.00;;;;8271763;28;20285;-67
2023/08/31 04:35:10;;;;;;;8.20;5.57;;;;;13.70;95834.00;;;;8265317;28;20673;-68
2023/08/31 04:39:13;;;;;;;7.80;5.07;;;;;13.70;95833.00;;;;8271451;28;20281;-67
2023/08/31 04:43:18;;;;;;;9.32;5.05;;;;;13.70;95831.00;;;;8277022;28;20225;-67
2023/08/31 04:47:21;;;;;;;9.63;5.20;;;;;13.70;95835.00;;;;8285605;28;20307;-67
2023/08/31 04:51:32;;;;;;;7.60;5.30;;;;;13.60;95857.00;;;;8267988;28;20742;-68
2023/08/31 04:55:35;;;;;;;8.88;5.25;;;;;13.50;95856.00;;;;8279925;28;20206;-67
2023/08/31 04:59:44;;;;;;;9.65;5.32;;;;;13.50;95860.00;;;;8263835;28;20209;-67
2023/08/31 05:03:47;;;;;;;10.80;5.38;;;;;13.40;95860.00;;;;8273553;28;20233;-68
2023/08/31 05:07:51;;;;;;;8.32;5.32;;;;;13.40;95871.00;;;;8272119;28;20209;-67
2023/08/31 05:11:54;;;;;;;6.25;4.65;;;;;13.40;95871.00;;;;8276372;28;20321;-68
2023/08/31 05:16:00;;;;;;;8.35;5.20;;;;;13.40;95870.00;;;;8274497;28;20206;-67
2023/08/31 05:20:09;;;;;;;7.43;5.15;;;;;13.50;95881.00;;;;8269713;28;20318;-68
2023/08/31 05:24:13;;;;;;;11.13;5.57;;;;;13.50;95896.00;;;;8247264;28;20250;-67
2023/08/31 05:28:18;;;;;;;7.20;5.25;;;;;13.50;95894.00;;;;8275477;28;20206;-67
2023/08/31 05:32:25;;;;;;;10.65;5.43;;;;;13.50;95900.00;;;;8269475;28;20288;-67
2023/08/31 05:36:28;;;;;;;10.75;5.97;;;;;13.60;95906.00;;;;8276383;28;20210;-68
2023/08/31 05:40:32;;;;;;;7.63;5.38;;;;;13.60;95913.00;;;;8279567;28;20256;-67
2023/08/31 05:44:36;;;;;;;8.40;5.18;;;;;13.70;95922.00;;;;8278239;28;20240;-68
2023/08/31 05:48:43;;;;;;;7.63;5.45;;;;;13.80;95932.00;;;;8278210;28;20198;-68
2023/08/31 05:52:48;;;;;;;13.55;5.70;;;;;14.00;95933.00;;;;8270227;28;20575;-68
2023/08/31 05:56:51;;;;;;;8.60;4.95;;;;;14.20;95922.00;;;;8275152;28;20282;-68
2023/08/31 06:00:54;;;;;;;10.77;5.65;;;;;14.20;95925.00;;;;8276652;28;20214;-68
2023/08/31 06:04:59;;;;;;;9.05;5.82;;;;;14.30;95921.00;;;;8276688;28;20233;-68
2023/08/31 06:09:03;;;;;;;10.98;6.32;;;;;14.50;95921.00;;;;8273921;28;20207;-67
2023/08/31 06:13:08;;;;;;;14.73;6.72;;;;;14.60;95925.00;;;;8274652;28;20202;-67
2023/08/31 06:17:12;;;;;;;16.67;7.38;;;;;14.70;95939.00;;;;8271566;28;20891;-67
2023/08/31 06:21:19;;;;;;;13.70;7.05;;;;;14.90;95943.00;;;;8271871;28;20680;-67
2023/08/31 06:25:27;;;;;;;12.20;6.72;;;;;14.90;95961.00;;;;8267505;28;20230;-68
2023/08/31 06:29:32;;;;;;;11.55;6.75;;;;;14.90;95960.00;;;;8273818;28;20198;-68
2023/08/31 06:33:37;;;;;;;10.90;6.70;;;;;14.90;95977.00;;;;8264642;28;20203;-68
2023/08/31 06:37:43;;;;;;;12.82;6.25;;;;;14.90;95959.00;;;;8277938;28;20801;-69
2023/08/31 06:41:47;;;;;;;13.52;6.22;;;;;14.90;95976.00;;;;8269756;28;20281;-68
2023/08/31 06:45:50;;;;;;;9.73;5.95;;;;;15.00;95979.00;;;;8264589;28;20241;-68
2023/08/31 06:49:54;;;;;;;14.10;6.60;;;;;15.00;95980.00;;;;8267603;28;20206;-68
2023/08/31 06:54:05;;;;;;;10.90;6.90;;;;;15.10;95980.00;;;;8270765;28;20222;-68
2023/08/31 06:58:09;;;;;;;10.40;6.53;;;;;15.20;95983.00;;;;8268588;28;20610;-69
2023/08/31 07:02:12;;;;;;;10.93;6.47;;;;;15.30;95979.00;;;;8265841;28;20344;-68
2023/08/31 07:06:18;;;;;;;8.15;6.13;;;;;15.40;95979.00;;;;8270006;28;20201;-68
2023/08/31 07:10:26;;;;;;;8.45;5.95;;;;;15.90;95984.00;;;;8266367;28;20332;-69
2023/08/31 07:14:29;;;;;;;10.05;5.65;;;;;16.20;95992.00;;;;8266293;28;20329;-69
2023/08/31 07:18:33;;;;;;;6.38;5.47;;;;;16.10;95992.00;;;;8261098;28;20253;-69
2023/08/31 07:22:41;;;;;;;8.10;5.05;;;;;16.30;95984.00;;;;8262727;28;20295;-69
2023/08/31 07:26:46;;;;;;;10.77;5.03;;;;;16.40;95988.00;;;;8267379;28;20190;-70
2023/08/31 07:30:49;;;;;;;5.63;3.50;;;;;16.70;95992.00;;;;8259007;28;20202;-69
2023/08/31 07:34:52;;;;;;;7.88;4.47;;;;;17.00;95991.00;;;;8260706;28;20671;-69
2023/08/31 07:38:55;;;;;;;6.97;3.90;;;;;17.40;96005.00;;;;8262822;28;20226;-70
2023/08/31 07:43:00;;;;;;;9.02;3.92;;;;;17.70;96023.00;;;;8267870;28;20229;-69
2023/08/31 07:47:03;;;;;;;9.05;4.38;;;;;18.10;96024.00;;;;8273951;28;20466;-69
2023/08/31 07:51:06;;;;;;;9.77;3.55;;;;;18.60;96034.00;;;;8266974;28;20658;-69
2023/08/31 07:55:10;;;;;;;6.15;3.30;;;;;18.50;96028.00;;;;8267050;28;20507;-69
2023/08/31 07:59:14;;;;;;;6.35;3.33;;;;;18.70;96026.00;;;;8277501;28;20252;-68
2023/08/31 08:03:20;;;;;;;4.70;3.20;;;;;19.10;96011.00;;;;8274662;28;20237;-69
2023/08/31 08:07:23;;;;;;;9.10;3.95;;;;;19.40;96025.00;;;;8273810;28;20233;-69
2023/08/31 08:11:27;;;;;;;5.65;3.13;;;;;19.60;96044.00;;;;8278983;28;20201;-69
2023/08/31 08:15:31;;;;;;;6.28;3.00;;;;;19.70;96055.00;;;;8275572;28;20206;-70
2023/08/31 08:19:37;;;;;;;7.20;2.80;;;;;19.20;96058.00;;;;8272091;28;20284;-69
2023/08/31 08:23:40;;;;;;;4.97;2.75;;;;;18.90;96050.00;;;;8273023;28;20226;-69
2023/08/31 08:27:45;;;;;;;7.28;2.67;;;;;18.80;96042.00;;;;8269120;28;20755;-69
2023/08/31 08:31:52;;;;;;;3.95;2.65;;;;;19.10;96053.00;;;;8268229;28;20234;-69
2023/08/31 08:35:57;;;;;;;4.35;2.60;;;;;19.20;96059.00;;;;8270218;28;20682;-69
2023/08/31 08:40:01;;;;;;;3.85;2.38;;;;;19.70;96062.00;;;;8276733;28;20374;-69
2023/08/31 08:44:08;;;;;;;7.60;2.60;;;;;20.20;96059.00;;;;8275023;28;20226;-69
2023/08/31 08:48:13;;;;;;;4.25;1.95;;;;;20.20;96051.00;;;;8270754;28;20659;-70
2023/08/31 08:52:18;;;;;;;9.82;2.45;;;;;20.10;96060.00;;;;8271517;28;20202;-70
2023/08/31 08:56:21;;;;;;;5.47;2.90;;;;;19.90;96070.00;;;;8272649;28;20202;-70
2023/08/31 09:00:25;;;;;;;2.92;2.20;;;;;19.90;96068.00;;;;8269564;28;20202;-70
2023/08/31 09:04:31;;;;;;;3.60;2.33;;;;;20.10;96075.00;;;;8272766;28;20795;-70
2023/08/31 09:08:37;;;;;;;2.80;2.30;;;;;20.20;96067.00;;;;8272245;28;20264;-70
2023/08/31 09:12:40;;;;;;;2.65;2.22;;;;;20.40;96074.00;;;;8275091;28;20205;-70
2023/08/31 09:16:51;;;;;;;3.53;2.03;;;;;20.20;96085.00;;;;8275791;28;20682;-70
2023/08/31 09:20:59;;;;;;;6.70;2.40;;;;;20.00;96080.00;;;;8271130;28;20279;-71
2023/08/31 09:25:02;;;;;;;5.78;2.53;;;;;20.20;96094.00;;;;8271852;28;20924;-70
2023/08/31 09:29:06;;;;;;;2.67;2.30;;;;;20.30;96090.00;;;;8275264;28;20859;-70
2023/08/31 09:33:16;;;;;;;4.05;2.45;;;;;20.30;96089.00;;;;8276823;28;20210;-70
2023/08/31 09:37:21;;;;;;;7.93;2.55;;;;;20.20;96109.00;;;;8272180;28;20256;-70
2023/08/31 09:41:24;;;;;;;3.70;2.30;;;;;20.20;96110.00;;;;8273350;28;20206;-70
2023/08/31 09:45:31;;;;;;;3.47;1.98;;;;;20.40;96108.00;;;;8273478;28;20651;-70
2023/08/31 09:49:53;;;;;;;7.18;2.00;;;;;20.30;96115.00;;;;8275503;28;20232;-70
2023/08/31 09:54:00;;;;;;;6.78;2.67;;;;;20.40;96114.00;;;;8272171;28;21018;-70
2023/08/31 09:58:08;;;;;;;4.55;2.20;;;;;20.70;96103.00;;;;8272007;28;20204;-70
2023/08/31 10:02:21;;;;;;;4.35;2.00;;;;;21.10;96104.00;;;;8276180;28;20714;-70
2023/08/31 10:06:25;;;;;;;2.67;1.98;;;;;21.30;96105.00;;;;8274344;28;20954;-70
2023/08/31 10:10:30;;;;;;;3.42;2.40;;;;;21.80;96113.00;;;;8274368;28;20305;-71
2023/08/31 10:14:36;;;;;;;4.53;2.22;;;;;21.70;96115.00;;;;8269499;28;20285;-71
2023/08/31 10:18:40;;;;;;;1.90;1.80;;;;;21.50;96105.00;;;;8274769;28;20206;-71
2023/08/31 10:22:43;;;;;;;3.40;2.00;;;;;21.60;96115.00;;;;8274047;28;20204;-71
2023/08/31 10:26:50;;;;;;;3.63;2.15;;;;;22.00;96104.00;;;;8268658;28;20230;-70
2023/08/31 10:31:08;;;;;;;3.75;1.90;;;;;22.10;96108.00;;;;8275669;28;20297;-71
2023/08/31 10:35:11;;;;;;;5.28;1.88;;;;;21.60;96110.00;;;;8265686;28;20222;-71
2023/08/31 10:39:20;;;;;;;4.78;2.15;;;;;22.10;96113.00;;;;8265400;28;20241;-70
2023/08/31 10:43:44;;;;;;;4.18;2.35;;;;;22.60;96106.00;;;;8267823;28;20207;-71
2023/08/31 10:47:50;;;;;;;3.83;1.90;;;;;22.70;96109.00;;;;8264672;28;20206;-71
2023/08/31 10:51:57;;;;;;;5.38;2.20;;;;;22.40;96103.00;;;;8265390;28;20206;-71
2023/08/31 10:56:02;;;;;;;6.18;2.10;;;;;22.60;96113.00;;;;8268276;28;20213;-71
2023/08/31 11:00:11;;;;;;;6.97;2.30;;;;;22.80;96114.00;;;;8248773;28;20204;-71
2023/08/31 11:04:15;;;;;;;3.58;2.65;;;;;23.10;96107.00;;;;8264776;28;20229;-70
2023/08/31 11:08:26;;;;;;;4.75;2.63;;;;;23.00;96106.00;;;;8265115;28;21018;-71
2023/08/31 11:12:33;;;;;;;5.20;2.63;;;;;22.80;96114.00;;;;8271284;28;20453;-71
2023/08/31 11:16:39;;;;;;;6.03;2.15;;;;;22.90;96100.00;;;;8266434;28;20289;-71
2023/08/31 11:20:51;;;;;;;4.78;2.30;;;;;23.10;96102.00;;;;8265582;28;20234;-71
2023/08/31 11:24:55;;;;;;;4.03;2.20;;;;;23.20;96096.00;;;;8264203;28;20236;-71
2023/08/31 11:28:58;;;;;;;5.78;2.50;;;;;22.90;96099.00;;;;8271632;28;20246;-71
2023/08/31 11:33:05;;;;;;;2.75;2.08;;;;;22.60;96102.00;;;;8270226;28;20194;-72
2023/08/31 11:37:17;;;;;;;4.78;1.90;;;;;22.10;96095.00;;;;8269896;28;20289;-71
2023/08/31 11:41:21;;;;;;;3.83;2.33;;;;;22.30;96101.00;;;;8267089;28;20220;-71
2023/08/31 11:45:25;;;;;;;3.47;1.77;;;;;22.00;96101.00;;;;8274460;28;20233;-71
2023/08/31 11:49:31;;;;;;;5.70;2.20;;;;;21.80;96095.00;;;;8280959;28;20309;-71
2023/08/31 11:53:35;;;;;;;2.80;2.08;;;;;21.50;96107.00;;;;8267539;28;20202;-71
2023/08/31 11:57:38;;;;;;;5.80;2.28;;;;;21.30;96103.00;;;;8278815;28;20218;-71
2023/08/31 12:01:43;;;;;;;2.72;2.10;;;;;21.20;96098.00;;;;8277907;28;20778;-72
2023/08/31 12:05:54;;;;;;;2.53;1.90;;;;;21.00;96096.00;;;;8277708;28;20234;-72
2023/08/31 12:10:04;;;;;;;3.80;2.00;;;;;21.00;96092.00;;;;8277956;28;20205;-72
2023/08/31 12:14:20;;;;;;;6.65;2.38;;;;;21.20;96096.00;;;;8276589;28;20225;-72
2023/08/31 12:18:28;;;;;;;3.35;1.65;;;;;21.30;96107.00;;;;8275831;28;20221;-72
2023/08/31 12:22:33;;;;;;;2.95;2.00;;;;;21.40;96119.00;;;;8280086;28;20206;-72
2023/08/31 12:26:39;;;;;;;3.17;2.00;;;;;21.30;96113.00;;;;8277555;28;20927;-72
2023/08/31 12:30:44;;;;;;;2.20;2.00;;;;;21.00;96105.00;;;;8278865;28;20209;-72
2023/08/31 12:34:49;;;;;;;3.33;2.13;;;;;20.80;96106.00;;;;8275228;28;20210;-72
2023/08/31 12:38:53;;;;;;;4.35;2.20;;;;;20.80;96114.00;;;;8280464;28;20218;-72
2023/08/31 12:42:56;;;;;;;5.00;2.35;;;;;20.80;96107.00;;;;8275969;28;20818;-72
2023/08/31 12:46:59;;;;;;;3.92;2.10;;;;;21.10;96127.00;;;;8278686;28;20234;-72
2023/08/31 12:51:06;;;;;;;4.53;2.10;;;;;21.00;96124.00;;;;8280281;28;20233;-72
2023/08/31 12:55:11;;;;;;;4.35;2.20;;;;;21.10;96121.00;;;;8278377;28;20214;-73
2023/08/31 12:59:19;;;;;;;2.63;1.90;;;;;21.20;96125.00;;;;8280784;28;20214;-72
2023/08/31 13:03:24;;;;;;;6.35;2.38;;;;;21.30;96120.00;;;;8273344;28;20688;-72
2023/08/31 13:07:30;;;;;;;3.30;2.33;;;;;21.40;96116.00;;;;8277794;28;20214;-72
2023/08/31 13:11:36;;;;;;;5.95;2.42;;;;;21.40;96127.00;;;;8270960;28;20241;-72
2023/08/31 13:15:43;;;;;;;5.07;2.30;;;;;21.20;96122.00;;;;8278366;28;20241;-72
2023/08/31 13:19:50;;;;;;;3.13;2.40;;;;;21.20;96125.00;;;;8273427;28;20217;-73
2023/08/31 13:23:53;;;;;;;3.50;2.15;;;;;21.20;96137.00;;;;8258637;28;20567;-79
2023/08/31 13:28:03;;;;;;;2.88;2.13;;;;;21.30;96127.00;;;;8271388;28;20269;-79
2023/08/31 13:32:13;;;;;;;3.08;2.00;;;;;21.30;96135.00;;;;8269926;28;20238;-78
2023/08/31 13:36:19;;;;;;;5.85;2.40;;;;;21.30;96140.00;;;;8274355;28;20198;-80
2023/08/31 13:40:22;;;;;;;3.72;2.53;;;;;21.30;96135.00;;;;8270907;28;20214;-80
2023/08/31 13:44:29;;;;;;;3.10;2.30;;;;;21.20;96143.00;;;;8274545;28;20198;-75
2023/08/31 13:48:32;;;;;;;4.60;2.80;;;;;21.70;96142.00;;;;8266662;28;20206;-75
2023/08/31 13:52:35;;;;;;;4.63;3.15;;;;;22.40;96136.00;;;;8272969;28;20206;-75
2023/08/31 13:56:42;;;;;;;3.00;2.70;;;;;22.90;96144.00;;;;8278273;28;20201;-75
2023/08/31 14:00:47;;;;;;;4.90;2.15;;;;;22.80;96141.00;;;;8266363;28;21636;-75
2023/08/31 14:04:51;;;;;;;3.97;2.45;;;;;22.70;96139.00;;;;8271659;28;20993;-75
2023/08/31 14:08:56;;;;;;;3.45;2.22;;;;;22.70;96125.00;;;;8267610;28;20194;-75
2023/08/31 14:12:59;;;;;;;3.97;2.10;;;;;22.90;96127.00;;;;8272244;28;20198;-75
2023/08/31 14:17:05;;;;;;;3.80;2.22;;;;;23.10;96130.00;;;;8272029;28;20643;-78
2023/08/31 14:21:15;;;;;;;1.98;1.88;;;;;23.30;96124.00;;;;8273307;28;20911;-78
2023/08/31 14:25:23;;;;;;;6.65;2.47;;;;;23.50;96126.00;;;;8260438;28;20218;-77
2023/08/31 14:29:27;;;;;;;3.60;2.25;;;;;23.50;96117.00;;;;8265457;28;20202;-77
2023/08/31 14:33:40;;;;;;;3.05;2.30;;;;;23.30;96127.00;;;;8259908;28;20194;-78
2023/08/31 14:37:51;;;;;;;5.35;2.70;;;;;23.10;96123.00;;;;8263738;28;20213;-79
2023/08/31 14:41:58;;;;;;;3.65;2.25;;;;;22.90;96123.00;;;;8264458;28;20591;-79
2023/08/31 14:46:02;;;;;;;5.78;2.58;;;;;22.60;96137.00;;;;8269305;28;20226;-79
2023/08/31 14:50:10;;;;;;;4.32;2.60;;;;;22.20;96141.00;;;;8267097;28;20206;-81
2023/08/31 14:54:16;;;;;;;4.55;2.30;;;;;22.00;96145.00;;;;8273573;28;20571;-76
2023/08/31 14:58:20;;;;;;;3.85;2.55;;;;;22.10;96146.00;;;;8273053;28;20210;-79
2023/08/31 15:02:23;;;;;;;3.53;2.40;;;;;22.30;96145.00;;;;8279967;28;20237;-79
2023/08/31 15:06:32;;;;;;;2.92;2.28;;;;;22.50;96141.00;;;;8275997;28;20352;-81
2023/08/31 15:10:35;;;;;;;6.20;2.40;;;;;22.30;96139.00;;;;8271982;28;20404;-80
2023/08/31 15:14:38;;;;;;;7.15;2.25;;;;;22.10;96141.00;;;;8263784;28;20214;-78
2023/08/31 15:18:47;;;;;;;6.45;2.60;;;;;22.00;96144.00;;;;8279419;28;20320;-82
2023/08/31 15:22:51;;;;;;;4.07;2.35;;;;;22.00;96140.00;;;;8278886;28;20201;-78
2023/08/31 15:26:56;;;;;;;2.53;2.28;;;;;21.80;96146.00;;;;8270063;28;20253;-80
2023/08/31 15:31:01;;;;;;;4.00;2.22;;;;;21.50;96139.00;;;;8272941;28;20208;-80
2023/08/31 15:35:06;;;;;;;4.40;2.63;;;;;21.60;96143.00;;;;8257536;28;20202;-80
2023/08/31 15:39:18;;;;;;;3.42;2.50;;;;;21.70;96144.00;;;;8274935;28;20294;-81
2023/08/31 15:43:23;;;;;;;5.28;2.40;;;;;21.80;96146.00;;;;8276347;28;20204;-76
2023/08/31 15:47:26;;;;;;;5.70;2.92;;;;;22.00;96164.00;;;;8277965;28;20223;-81
2023/08/31 15:51:29;;;;;;;4.20;2.00;;;;;22.20;96159.00;;;;8277914;28;20202;-81
2023/08/31 15:55:34;;;;;;;4.05;2.58;;;;;22.20;96159.00;;;;8258404;28;20194;-80
2023/08/31 15:59:39;;;;;;;6.20;2.60;;;;;22.30;96158.00;;;;8284925;28;20201;-79
2023/08/31 16:03:45;;;;;;;3.95;2.20;;;;;22.40;96147.00;;;;8281352;28;20341;-78
2023/08/31 16:07:50;;;;;;;4.63;2.55;;;;;22.60;96154.00;;;;8275126;28;20643;-82
2023/08/31 16:11:57;;;;;;;2.63;2.30;;;;;22.80;96157.00;;;;8283485;28;20563;-82
2023/08/31 16:16:03;;;;;;;3.38;2.08;;;;;22.90;96161.00;;;;8277686;28;20225;-80
2023/08/31 16:20:10;;;;;;;3.22;2.40;;;;;23.00;96160.00;;;;8273209;28;20202;-79
2023/08/31 16:24:15;;;;;;;2.33;2.13;;;;;23.20;96167.00;;;;8272720;28;20297;-81
2023/08/31 16:28:21;;;;;;;3.85;2.25;;;;;23.30;96156.00;;;;8269852;28;20322;-79
2023/08/31 16:32:25;;;;;;;4.60;2.47;;;;;23.00;96152.00;;;;8275790;28;20245;-81
2023/08/31 16:36:28;;;;;;;5.05;2.17;;;;;23.00;96159.00;;;;8270096;28;20198;-79
2023/08/31 16:40:32;;;;;;;3.08;2.38;;;;;23.10;96153.00;;;;8265888;28;20206;-81
2023/08/31 16:44:38;;;;;;;4.05;2.38;;;;;23.20;96149.00;;;;8263394;28;20273;-79
2023/08/31 16:48:41;;;;;;;2.92;2.30;;;;;23.30;96146.00;;;;8274069;28;20661;-81
2023/08/31 16:52:44;;;;;;;3.33;2.20;;;;;23.30;96139.00;;;;8278467;28;20813;-80
2023/08/31 16:56:48;;;;;;;2.75;2.50;;;;;23.20;96145.00;;;;8274893;28;20618;-81
2023/08/31 17:00:53;;;;;;;4.95;2.28;;;;;22.60;96146.00;;;;8269275;28;20218;-76
2023/08/31 17:04:56;;;;;;;7.28;2.55;;;;;21.90;96136.00;;;;8269447;28;20795;-80
2023/08/31 17:08:59;;;;;;;5.82;2.72;;;;;21.50;96140.00;;;;8268435;28;20234;-77
2023/08/31 17:13:03;;;;;;;4.13;2.47;;;;;21.10;96142.00;;;;8275330;28;20198;-79
2023/08/31 17:17:11;;;;;;;8.15;2.50;;;;;20.60;96136.00;;;;8274555;28;20209;-79
2023/08/31 17:21:14;;;;;;;4.43;2.40;;;;;20.30;96135.00;;;;8267767;28;20198;-79
2023/08/31 17:25:20;;;;;;;4.78;2.75;;;;;20.00;96132.00;;;;8271628;28;20211;-80
2023/08/31 17:29:25;;;;;;;8.00;2.88;;;;;19.80;96136.00;;;;8270357;28;20746;-79
2023/08/31 17:33:32;;;;;;;3.92;2.50;;;;;19.60;96137.00;;;;8268804;28;20278;-77
2023/08/31 17:37:38;;;;;;;2.47;2.20;;;;;19.40;96148.00;;;;8269309;28;20200;-77
2023/08/31 17:41:41;;;;;;;2.92;2.28;;;;;19.20;96156.00;;;;8268429;28;20195;-78
2023/08/31 17:45:45;;;;;;;2.55;2.28;;;;;18.90;96160.00;;;;8266549;28;20584;-79
2023/08/31 17:49:50;;;;;;;5.00;2.60;;;;;18.80;96158.00;;;;8264219;28;20230;-78
2023/08/31 17:53:56;;;;;;;9.88;2.78;;;;;18.50;96164.00;;;;8270626;28;20277;-77
2023/08/31 17:58:03;;;;;;;4.03;2.55;;;;;18.20;96167.00;;;;8275060;28;20198;-75
2023/08/31 18:02:10;;;;;;;3.85;3.00;;;;;18.00;96169.00;;;;8265015;28;20317;-76
2023/08/31 18:06:21;;;;;;;3.08;2.40;;;;;17.70;96168.00;;;;8264539;28;20210;-76
2023/08/31 18:10:30;;;;;;;3.78;2.65;;;;;17.50;96176.00;;;;8267118;28;20242;-76
2023/08/31 18:14:36;;;;;;;7.05;3.40;;;;;17.30;96171.00;;;;8267497;28;20217;-76
2023/08/31 18:18:40;;;;;;;6.00;2.70;;;;;17.30;96177.00;;;;8264868;28;20198;-77
2023/08/31 18:22:45;;;;;;;3.80;2.42;;;;;17.20;96181.00;;;;8263186;28;20294;-76
2023/08/31 18:26:49;;;;;;;5.30;2.70;;;;;17.20;96179.00;;;;8264070;28;20226;-75
2023/08/31 18:30:56;;;;;;;4.55;3.10;;;;;17.10;96185.00;;;;8265941;28;20206;-76
2023/08/31 18:35:00;;;;;;;6.07;2.65;;;;;17.10;96200.00;;;;8268905;28;20301;-79
2023/08/31 18:39:07;;;;;;;4.95;2.72;;;;;17.10;96204.00;;;;8262539;28;20278;-76
2023/08/31 18:43:10;;;;;;;4.78;2.58;;;;;17.10;96207.00;;;;8246640;28;20228;-78
2023/08/31 18:47:15;;;;;;;5.78;2.58;;;;;17.10;96198.00;;;;8268655;28;20329;-77
2023/08/31 18:51:20;;;;;;;5.90;2.80;;;;;17.10;96199.00;;;;8271749;28;20289;-76
2023/08/31 18:55:38;;;;;;;12.48;3.40;;;;;17.10;96205.00;;;;8264379;28;20205;-75
2023/08/31 18:59:41;;;;;;;6.60;3.00;;;;;17.10;96212.00;;;;8269480;28;20212;-74
2023/08/31 19:03:45;;;;;;;4.55;2.63;;;;;17.00;96212.00;;;;8274415;28;20265;-75
2023/08/31 19:07:50;;;;;;;5.70;2.90;;;;;17.00;96215.00;;;;8260479;28;20226;-75
2023/08/31 19:12:00;;;;;;;6.75;2.85;;;;;16.90;96216.00;;;;8272623;28;20301;-77
2023/08/31 19:16:04;;;;;;;4.25;2.72;;;;;16.90;96215.00;;;;8275835;28;21878;-76
2023/08/31 19:20:14;;;;;;;4.53;2.58;;;;;16.90;96220.00;;;;8267370;28;20203;-73
2023/08/31 19:24:21;;;;;;;4.72;3.03;;;;;16.90;96230.00;;;;8260310;28;20203;-75
2023/08/31 19:28:27;;;;;;;9.95;2.92;;;;;16.90;96234.00;;;;8268761;28;20321;-74
2023/08/31 19:32:33;;;;;;;6.32;2.90;;;;;16.90;96241.00;;;;8249855;28;20780;-75
2023/08/31 19:36:37;;;;;;;7.00;3.05;;;;;16.90;96240.00;;;;8261177;28;20241;-75
2023/08/31 19:40:40;;;;;;;5.22;2.90;;;;;16.90;96238.00;;;;8268618;28;20297;-75
2023/08/31 19:44:46;;;;;;;8.13;3.03;;;;;16.90;96241.00;;;;8270926;28;20209;-75
2023/08/31 19:48:49;;;;;;;3.95;3.28;;;;;16.80;96238.00;;;;8263412;28;20234;-75
2023/08/31 19:57:17;;;;;;;6.35;3.05;;;;;16.70;96242.00;;;;8261788;28;20313;-75
2023/08/31 20:01:22;;;;;;;7.57;2.83;;;;;16.70;96240.00;;;;8271234;28;20198;-76
2023/08/31 20:05:28;;;;;;;5.45;3.05;;;;;16.60;96244.00;;;;8271307;28;20588;-75
2023/08/31 20:09:31;;;;;;;7.80;3.17;;;;;16.50;96242.00;;;;8279085;28;20261;-74
2023/08/31 20:13:35;;;;;;;7.93;2.90;;;;;16.50;96238.00;;;;8272182;28;20669;-75
2023/08/31 20:17:43;;;;;;;6.22;2.95;;;;;16.40;96241.00;;;;8273606;28;20206;-73
2023/08/31 20:21:49;;;;;;;6.65;3.13;;;;;16.40;96243.00;;;;8275095;28;20194;-75
2023/08/31 20:25:52;;;;;;;6.57;3.30;;;;;16.30;96239.00;;;;8272949;28;20202;-74
2023/08/31 20:30:09;;;;;;;4.93;2.75;;;;;16.30;96240.00;;;;8274729;28;20245;-73
2023/08/31 20:34:14;;;;;;;8.55;3.22;;;;;16.30;96251.00;;;;8283217;28;20198;-74
2023/08/31 20:38:17;;;;;;;8.43;3.20;;;;;16.30;96261.00;;;;8270685;28;20218;-75